Walton, Indiana
Current Conditions -  °F | °C
As of 9:58 PM on Monday 20 Oct 2014 (Local Time) from KGUS Reporting Station
Broken Clouds Broken Clouds  
Wind Chill: 53°   Ceiling: 6500
Heat Index: 53°   Visibility: 10mi
Dew Point: 53°   Wind: 10mph
Humidity: 99%   Direction: 350°N
Pressure: 29.94"   Gusts: NA
Location:  40.66°N, 86.24°W
Report Text: KGUS 210158Z AUTO 35009KT 10SM BKN065 12/12 A2994 RMK AO2 RAB0100E0119DZE0100 SLP143 P0000 T01160115
Loading
Personal Weather Stations






























Interactive Weather Map
Tropical Storm Tracking
New forecast layout! Learn more

10-Day Weather Forecast

Advertisements
Track Severe Weather on mobile